Latest Weather Observations for Dartmoor

IDV60801

Issued at 10:32 am EST Sunday 16 June 2019 (issued every 10 minutes, with the page automatically refreshed every 10 minutes)

About weather observations | Map of weather stations | Latest weather observations for VIC | Other Formats
Station Details ID: 090194 Name: DARTMOOR Lat: -37.92 Lon: 141.26 Height: 51.0 m
Data from the previous 72 hours. | See also: Recent months at Dartmoor
Date/Time
EST
Temp
°C
App
Temp
°C
Dew
Point
°C
Rel
Hum
%
Delta-T
°C
Wind Press
QNH
hPa
Press
MSL
hPa
Rain since
9am
mm
Dir  Spd
km/h
Gust
km/h
Spd
kts
Gust
kts
16/10:30am 11.1 9.3 10.8 98 0.2 N 11 20 6 11 1021.8 1021.9 0.0
16/10:00am 10.6 9.4 10.3 98 0.2 N 7 11 4 6 1021.7 1021.8 0.0
16/09:30am 8.8 8.5 8.5 98 0.1 CALM 0 4 0 2 1021.7 1021.8 0.0
16/09:00am 6.8 5.2 6.5 98 0.1 NE 4 6 2 3 1021.5 1021.6 0.2
16/08:30am 6.6 5.0 6.3 98 0.1 NE 4 6 2 3 1021.3 1021.4 0.2
16/08:00am 6.4 4.4 6.1 98 0.1 ENE 6 7 3 4 1021.0 1021.1 0.2
16/07:30am 6.2 4.5 5.9 98 0.1 E 4 6 2 3 1020.9 1021.0 0.2
16/07:00am 6.4 4.7 6.1 98 0.1 E 4 4 2 2 1020.7 1020.8 0.2
16/06:30am 6.7 5.1 6.4 98 0.1 E 4 6 2 3 1020.4 1020.5 0.2
16/06:00am 7.0 5.9 6.7 98 0.1 NE 2 2 1 1 1019.9 1020.0 0.2
16/05:30am 7.0 6.2 6.7 98 0.1 CALM 0 2 0 1 1019.6 1019.7 0.2
16/05:00am 8.2 6.6 7.9 98 0.1 NNE 6 6 3 3 1019.4 1019.5 0.2
16/04:30am 8.4 7.2 8.1 98 0.1 NNE 4 6 2 3 1019.4 1019.5 0.2
16/04:00am 8.0 6.7 7.7 98 0.1 NE 4 6 2 3 1019.5 1019.6 0.2
16/03:30am 8.4 7.6 8.1 98 0.1 N 2 4 1 2 1019.8 1019.9 0.2
16/03:00am 7.9 7.0 7.6 98 0.1 ENE 2 2 1 1 1019.9 1020.0 0.2
16/02:30am 8.0 6.7 7.7 98 0.1 ENE 4 4 2 2 1019.8 1019.9 0.2
16/02:00am 8.6 7.5 8.3 98 0.1 NE 4 6 2 3 1019.8 1019.9 0.2
16/01:30am 7.9 6.2 7.6 98 0.1 NE 6 7 3 4 1019.8 1019.9 0.2
16/01:00am 8.1 6.5 7.8 98 0.1 NE 6 7 3 4 1019.8 1019.9 0.0
16/12:30am 7.7 6.7 7.4 98 0.1 NE 2 4 1 2 1020.0 1020.1 0.0
16/12:00am 7.8 6.1 7.5 98 0.1 NE 6 6 3 3 1020.2 1020.3 0.0
 
Date/Time
EST
Temp
°C
App
Temp
°C
Dew
Point
°C
Rel
Hum
%
Delta-T
°C
Wind Press
QNH
hPa
Press
MSL
hPa
Rain since
9am
mm
Dir  Spd
km/h
Gust
km/h
Spd
kts
Gust
kts
15/11:30pm 7.7 6.3 7.4 98 0.1 NE 4 6 2 3 1020.4 1020.5 0.0
15/11:00pm 7.6 6.6 7.3 98 0.1 NE 2 4 1 2 1020.5 1020.6 0.0
15/10:30pm 7.6 7.0 7.3 98 0.1 CALM 0 0 0 0 1020.5 1020.6 0.0
15/10:00pm 7.9 7.3 7.6 98 0.1 CALM 0 0 0 0 1020.6 1020.7 0.0
15/09:30pm 8.2 7.7 7.9 98 0.1 CALM 0 0 0 0 1020.7 1020.8 0.0
15/09:00pm 8.4 8.0 8.1 98 0.1 CALM 0 0 0 0 1020.6 1020.7 0.0
15/08:30pm 8.8 8.5 8.5 98 0.1 CALM 0 0 0 0 1020.6 1020.7 0.0
15/08:00pm 9.5 8.6 9.2 98 0.1 NE 4 6 2 3 1020.6 1020.7 0.0
15/07:30pm 9.4 8.8 9.1 98 0.1 NNE 2 4 1 2 1020.6 1020.7 0.0
15/07:00pm 9.8 9.7 9.5 98 0.1 CALM 0 0 0 0 1020.6 1020.7 0.0
15/06:30pm 10.5 10.2 10.2 98 0.2 NNE 2 2 1 1 1020.5 1020.6 0.0
15/06:00pm 11.0 10.5 10.7 98 0.2 NNE 4 6 2 3 1020.4 1020.5 0.0
15/05:30pm 11.1 10.0 10.8 98 0.2 N 7 11 4 6 1020.2 1020.3 0.0
15/05:00pm 11.4 10.0 10.9 97 0.3 N 9 13 5 7 1019.9 1020.0 0.0
15/04:30pm 12.5 11.7 11.7 95 0.4 N 7 11 4 6 1019.6 1019.7 0.0
15/04:00pm 13.1 12.4 11.3 89 1.0 NNW 6 7 3 4 1019.7 1019.8 0.0
15/03:30pm 13.5 12.8 11.4 87 1.1 NNW 6 9 3 5 1019.6 1019.7 0.0
15/03:00pm 13.1 11.1 10.3 83 1.4 NNW 11 19 6 10 1019.6 1019.7 0.0
15/02:30pm 13.4 12.9 10.9 85 1.3 WNW 4 6 2 3 1019.7 1019.8 0.0
15/02:00pm 12.3 11.5 11.8 97 0.3 N 7 9 4 5 1019.8 1019.9 0.0
15/01:30pm 12.6 11.6 12.3 98 0.2 NNW 9 11 5 6 1020.3 1020.4 0.0
15/01:00pm 12.5 11.5 12.2 98 0.2 NNW 9 15 5 8 1020.6 1020.7 0.0
15/12:30pm 11.5 10.7 11.2 98 0.2 NW 6 7 3 4 1020.8 1020.9 0.0
15/12:00pm 11.5 10.6 11.2 98 0.2 NNW 7 11 4 6 1021.2 1021.3 0.0
15/11:30am 11.1 9.7 10.8 98 0.2 N 9 13 5 7 1021.3 1021.4 0.0
15/11:00am 10.8 9.7 10.5 98 0.2 N 7 9 4 5 1021.7 1021.8 0.0
15/10:30am 10.3 9.0 10.0 98 0.2 N 7 9 4 5 1021.7 1021.8 0.0
15/10:00am 9.8 9.0 9.5 98 0.1 N 4 6 2 3 1021.6 1021.7 0.0
15/09:30am 9.5 8.2 9.2 98 0.1 N 6 9 3 5 1021.4 1021.5 0.0
15/09:00am 9.4 8.1 9.1 98 0.1 N 6 9 3 5 1021.2 1021.3 4.0
15/08:30am 9.3 8.3 9.0 98 0.1 N 4 7 2 4 1020.9 1021.0 4.0
15/08:00am 9.3 8.3 9.0 98 0.1 N 4 6 2 3 1020.7 1020.8 4.0
15/07:30am 9.2 8.2 8.9 98 0.1 N 4 6 2 3 1020.5 1020.6 4.0
15/07:00am 9.1 7.7 8.8 98 0.1 N 6 9 3 5 1020.2 1020.3 4.0
15/06:30am 9.0 8.0 8.7 98 0.1 N 4 6 2 3 1020.1 1020.2 4.0
15/06:00am 8.9 7.4 8.6 98 0.1 N 6 9 3 5 1019.7 1019.8 4.0
15/05:30am 8.8 6.8 8.5 98 0.1 NNW 9 11 5 6 1019.5 1019.6 4.0
15/05:00am 9.0 7.6 8.7 98 0.1 NNW 6 9 3 5 1019.3 1019.4 4.0
15/04:30am 9.0 7.4 8.7 98 0.1 N 7 9 4 5 1019.1 1019.2 4.0
15/04:00am 9.1 7.5 8.8 98 0.1 N 7 11 4 6 1019.1 1019.2 4.0
15/03:30am 9.2 7.8 8.9 98 0.1 NW 6 7 3 4 1019.3 1019.4 4.0
15/03:00am 9.3 7.4 9.0 98 0.1 NNW 9 13 5 7 1019.3 1019.4 4.0
15/02:30am 9.6 8.1 9.3 98 0.1 N 7 9 4 5 1019.3 1019.4 4.0
15/02:00am 9.8 8.0 9.5 98 0.1 NNW 9 13 5 7 1019.1 1019.2 4.0
15/01:30am 10.0 8.3 9.7 98 0.2 NNW 9 13 5 7 1019.1 1019.2 4.0
15/01:00am 9.5 8.0 9.2 98 0.1 NW 7 9 4 5 1019.0 1019.1 4.0
15/12:30am 10.1 8.4 9.8 98 0.2 NNW 9 13 5 7 1019.0 1019.1 4.0
15/12:00am 10.2 9.1 9.9 98 0.2 NW 6 9 3 5 1019.1 1019.2 4.0
 
Date/Time
EST
Temp
°C
App
Temp
°C
Dew
Point
°C
Rel
Hum
%
Delta-T
°C
Wind Press
QNH
hPa
Press
MSL
hPa
Rain since
9am
mm
Dir  Spd
km/h
Gust
km/h
Spd
kts
Gust
kts
14/11:30pm 10.2 8.9 9.9 98 0.2 NNW 7 9 4 5 1019.0 1019.1 4.0
14/11:00pm 9.7 8.3 9.4 98 0.1 NNW 7 11 4 6 1019.0 1019.1 4.0
14/10:30pm 9.6 8.1 9.3 98 0.1 N 7 9 4 5 1019.1 1019.2 3.8
14/10:00pm 10.4 9.7 10.1 98 0.2 NNW 4 6 2 3 1019.1 1019.2 3.8
14/09:30pm 10.9 9.4 10.6 98 0.2 NNW 9 15 5 8 1019.1 1019.2 3.8
14/09:00pm 10.9 8.6 10.6 98 0.2 NNW 13 20 7 11 1019.2 1019.3 3.6
14/08:30pm 10.4 9.1 10.1 98 0.2 NNW 7 11 4 6 1018.9 1019.0 3.6
14/08:00pm 10.3 9.2 10.0 98 0.2 NNW 6 11 3 6 1018.8 1018.9 3.6
14/07:30pm 10.2 9.1 9.9 98 0.2 NNW 6 6 3 3 1018.6 1018.7 3.6
14/07:00pm 10.5 9.8 10.0 97 0.3 WNW 4 4 2 2 1018.4 1018.5 3.6
14/06:30pm 11.2 10.5 10.1 93 0.6 WNW 4 7 2 4 1018.0 1018.1 3.6
14/06:00pm 11.0 10.0 10.4 96 0.3 NW 6 7 3 4 1017.9 1018.0 3.6
14/05:30pm 11.3 10.8 10.7 96 0.3 NW 4 7 2 4 1017.6 1017.7 3.6
14/05:00pm 12.1 11.2 10.5 90 0.8 NW 6 7 3 4 1017.3 1017.4 3.6
14/04:30pm 12.6 11.0 10.1 85 1.3 WNW 9 11 5 6 1017.2 1017.3 3.6
14/04:00pm 12.7 11.0 9.9 83 1.4 W 9 15 5 8 1017.1 1017.2 3.6
14/03:30pm 12.9 10.3 9.2 78 1.9 W 13 20 7 11 1016.9 1017.0 3.6
14/03:00pm 13.9 10.9 9.3 74 2.3 W 15 24 8 13 1016.8 1016.9 3.6
14/02:30pm 14.0 10.6 9.0 72 2.5 W 17 28 9 15 1016.7 1016.8 3.6
14/02:00pm 13.3 10.0 9.5 78 1.9 W 17 30 9 16 1016.5 1016.6 3.6
14/01:30pm 13.0 10.8 10.9 87 1.1 WNW 13 24 7 13 1016.5 1016.6 3.6
14/01:00pm 13.6 10.4 11.1 85 1.3 WNW 19 30 10 16 1016.4 1016.5 3.6
14/12:30pm 13.7 11.5 13.2 97 0.3 WNW 17 26 9 14 1016.3 1016.4 3.6
14/12:00pm 12.7 11.0 12.4 98 0.2 WNW 13 22 7 12 1016.5 1016.6 3.6
14/11:30am 12.8 10.4 12.5 98 0.2 NW 17 22 9 12 1016.7 1016.8 3.4
14/11:00am 12.5 10.7 12.2 98 0.2 NW 13 17 7 9 1017.0 1017.1 3.4
14/10:30am 11.8 10.6 11.5 98 0.2 NW 9 15 5 8 1017.2 1017.3 3.2
14/10:00am 11.0 10.1 10.7 98 0.2 WNW 6 13 3 7 1017.2 1017.3 3.2
14/09:30am 10.8 10.2 10.5 98 0.2 NNW 4 7 2 4 1016.8 1016.9 2.6
14/09:00am 10.6 9.4 10.3 98 0.2 N 7 17 4 9 1016.7 1016.8 6.0
14/08:30am 10.4 9.7 10.1 98 0.2 NW 4 4 2 2 1016.6 1016.7 5.2
14/08:00am 10.4 8.0 10.1 98 0.2 N 13 19 7 10 1016.5 1016.6 4.8
14/07:30am 10.1 8.4 9.8 98 0.2 N 9 13 5 7 1016.3 1016.4 4.4
14/07:00am 9.9 8.1 9.6 98 0.1 N 9 15 5 8 1016.2 1016.3 4.4
14/06:30am 9.7 8.5 9.4 98 0.1 NNW 6 9 3 5 1016.1 1016.2 4.2
14/06:00am 9.6 8.1 9.3 98 0.1 WNW 7 13 4 7 1016.2 1016.3 3.2
14/05:30am 9.4 7.5 9.1 98 0.1 NNW 9 17 5 9 1015.9 1016.0 3.0
14/05:00am 9.4 7.9 9.1 98 0.1 NW 7 11 4 6 1016.1 1016.2 3.0
14/04:30am 9.4 7.9 9.1 98 0.1 W 7 11 4 6 1016.3 1016.4 3.0
14/04:00am 9.4 8.1 9.1 98 0.1 NW 6 9 3 5 1016.0 1016.1 3.0
14/03:30am 9.3 7.0 9.0 98 0.1 N 11 20 6 11 1016.2 1016.3 2.8
14/03:00am 9.3 6.6 9.0 98 0.1 N 13 19 7 10 1016.3 1016.4 2.8
14/02:30am 9.3 6.2 9.0 98 0.1 N 15 20 8 11 1016.3 1016.4 2.8
14/02:00am 9.0 6.6 8.7 98 0.1 N 11 17 6 9 1016.5 1016.6 2.8
14/01:30am 8.9 6.5 8.6 98 0.1 NNW 11 15 6 8 1016.6 1016.7 2.8
14/01:00am 8.8 6.8 8.5 98 0.1 NNW 9 15 5 8 1016.7 1016.8 2.8
14/12:30am 8.9 6.5 8.6 98 0.1 N 11 13 6 7 1016.9 1017.0 2.8
14/12:00am 9.1 7.1 8.8 98 0.1 N 9 15 5 8 1017.0 1017.1 2.8
 
Date/Time
EST
Temp
°C
App
Temp
°C
Dew
Point
°C
Rel
Hum
%
Delta-T
°C
Wind Press
QNH
hPa
Press
MSL
hPa
Rain since
9am
mm
Dir  Spd
km/h
Gust
km/h
Spd
kts
Gust
kts
13/11:30pm 9.2 7.3 8.9 98 0.1 NNW 9 13 5 7 1017.2 1017.3 2.8
13/11:00pm 9.2 6.9 8.9 98 0.1 NNW 11 15 6 8 1017.0 1017.1 2.8
13/10:30pm 9.1 7.5 8.8 98 0.1 NNW 7 11 4 6 1017.0 1017.1 2.8
13/10:00pm 9.4 8.1 9.1 98 0.1 NNW 6 7 3 4 1017.3 1017.4 2.8
13/09:30pm 9.9 8.5 9.6 98 0.2 NNW 7 9 4 5 1017.4 1017.5 2.8
13/09:00pm 9.9 8.7 9.4 97 0.2 NW 6 7 3 4 1017.5 1017.6 2.8
13/08:30pm 9.8 8.3 9.3 97 0.2 NW 7 11 4 6 1017.5 1017.6 2.8
13/08:00pm 9.8 8.5 9.3 97 0.2 NW 6 9 3 5 1017.1 1017.2 2.8
13/07:30pm 10.5 9.1 9.7 95 0.4 NW 7 9 4 5 1016.8 1016.9 2.8
13/07:00pm 11.1 9.8 10.0 93 0.6 NW 7 11 4 6 1016.4 1016.5 2.8
13/06:30pm 11.0 9.7 9.8 92 0.6 NW 7 9 4 5 1016.2 1016.3 2.8
13/06:00pm 11.4 9.5 9.1 86 1.1 WNW 9 13 5 7 1015.9 1016.0 2.8
13/05:30pm 11.5 10.1 9.6 88 1.0 W 7 17 4 9 1015.7 1015.8 2.8
13/05:00pm 12.0 10.6 9.7 86 1.2 W 7 11 4 6 1015.6 1015.7 2.8
13/04:30pm 12.4 10.7 9.8 84 1.3 W 9 15 5 8 1015.3 1015.4 2.8
13/04:00pm 12.6 11.2 11.0 90 0.8 W 9 20 5 11 1015.1 1015.2 2.8
13/03:30pm 13.2 11.1 11.1 87 1.1 W 13 22 7 12 1014.8 1014.9 2.8
13/03:00pm 12.3 10.8 11.8 97 0.3 W 11 20 6 11 1014.7 1014.8 2.8
13/02:30pm 13.6 11.2 11.3 86 1.2 W 15 30 8 16 1014.4 1014.5 2.6
13/02:00pm 14.0 11.1 12.2 89 1.0 NW 19 28 10 15 1014.1 1014.2 2.6
13/01:30pm 12.8 9.6 12.0 95 0.4 WNW 20 35 11 19 1014.2 1014.3 2.6
13/01:00pm 13.2 10.2 12.1 93 0.6 WNW 19 30 10 16 1014.0 1014.1 2.6
13/12:30pm 14.1 12.0 12.5 90 0.9 NW 15 26 8 14 1014.1 1014.2 0.4
13/12:00pm 14.0 11.1 12.4 90 0.9 NW 19 26 10 14 1014.2 1014.3 0.4
13/11:30am 12.8 10.4 12.5 98 0.2 NW 17 28 9 15 1014.7 1014.8 0.4
13/11:00am 11.9 9.6 11.6 98 0.2 NW 15 22 8 12 1015.0 1015.1 0.4

Other formats

Comma delimited format used in spreadsheet applications
http://www.bom.gov.au/fwo/IDV60801/IDV60801.95822.axf

JavaScript Object Notation format (JSON) in row-major order
http://www.bom.gov.au/fwo/IDV60801/IDV60801.95822.json

Data quality

Most of these data are generated automatically and are frequently updated. Quality checks on data are not normally performed. It is possible for incorrect values to appear. Refer to information at About Latest Weather Observations and please check the disclaimer before using these data.